createdAt,value
2018-04-22T00:01:37.270Z,11.40
2018-04-22T00:07:41.716Z,11.40
2018-04-22T00:13:46.165Z,11.30
2018-04-22T00:19:50.550Z,11.10
2018-04-22T00:25:54.925Z,10.90
2018-04-22T00:31:59.371Z,10.80
2018-04-22T00:38:04.501Z,11.10
2018-04-22T00:44:08.891Z,11.10
2018-04-22T00:50:13.263Z,11.20
2018-04-22T00:56:17.622Z,10.90
2018-04-22T01:02:21.987Z,10.90
2018-04-22T01:08:26.356Z,10.80
2018-04-22T01:14:30.732Z,10.80
2018-04-22T01:20:35.417Z,10.50
2018-04-22T01:26:40.215Z,10.40
2018-04-22T01:32:44.679Z,10.30
2018-04-22T01:38:49.051Z,10.20
2018-04-22T01:44:53.852Z,10.10
2018-04-22T01:50:58.216Z,10.00
2018-04-22T01:57:02.582Z,9.90
2018-04-22T02:03:07.708Z,9.60
2018-04-22T02:09:13.513Z,9.60
2018-04-22T02:15:17.949Z,9.60
2018-04-22T02:21:23.136Z,9.60
2018-04-22T02:27:28.271Z,9.50
2018-04-22T02:33:32.642Z,9.50
2018-04-22T02:39:36.996Z,9.40
2018-04-22T02:45:41.388Z,9.40
2018-04-22T02:51:46.106Z,9.40
2018-04-22T02:57:50.474Z,9.40
2018-04-22T03:03:54.848Z,9.20
2018-04-22T03:09:59.195Z,9.20
2018-04-22T03:16:03.551Z,9.10
2018-04-22T03:22:07.913Z,9.10
2018-04-22T03:28:13.044Z,9.00
2018-04-22T03:34:17.382Z,9.00
2018-04-22T03:40:22.494Z,8.90
2018-04-22T03:46:26.870Z,8.90
2018-04-22T03:52:31.214Z,8.80
2018-04-22T03:58:36.382Z,8.70
2018-04-22T04:04:41.609Z,8.80
2018-04-22T04:10:46.751Z,8.80
2018-04-22T04:16:52.061Z,8.60
2018-04-22T04:22:56.476Z,8.60
2018-04-22T04:29:01.608Z,8.70
2018-04-22T04:35:06.904Z,8.70
2018-04-22T04:41:11.255Z,8.70
2018-04-22T04:47:15.604Z,8.80
2018-04-22T04:53:19.996Z,8.80
2018-04-22T04:59:25.208Z,9.10
2018-04-22T05:05:29.669Z,9.10
2018-04-22T05:11:34.799Z,9.60
2018-04-22T05:17:39.731Z,9.60
2018-04-22T05:23:44.129Z,9.90
2018-04-22T05:29:48.499Z,10.10
2018-04-22T05:35:52.872Z,10.30
2018-04-22T05:41:57.222Z,10.60
2018-04-22T05:48:02.336Z,10.90
2018-04-22T05:54:06.859Z,10.90
2018-04-22T06:00:11.441Z,10.90
2018-04-22T06:06:15.879Z,11.00
2018-04-22T06:12:21.027Z,11.30
2018-04-22T06:18:25.372Z,11.60
2018-04-22T06:24:29.747Z,12.00
2018-04-22T06:30:34.122Z,12.20
2018-04-22T06:36:38.497Z,12.30
2018-04-22T06:42:42.901Z,12.70
2018-04-22T06:48:47.332Z,13.10
2018-04-22T06:54:51.687Z,13.80
2018-04-22T07:00:56.822Z,16.70
2018-04-22T07:07:01.210Z,16.60
2018-04-22T07:13:05.605Z,16.60
2018-04-22T07:19:10.336Z,16.10
2018-04-22T07:25:14.746Z,16.30
2018-04-22T07:31:19.113Z,16.50
2018-04-22T07:37:23.639Z,16.80
2018-04-22T07:43:28.762Z,17.30
2018-04-22T07:49:33.148Z,17.30
2018-04-22T07:55:37.599Z,17.60
2018-04-22T08:01:42.148Z,17.80
2018-04-22T08:07:47.387Z,19.20
2018-04-22T08:13:51.883Z,19.20
2018-04-22T08:19:56.833Z,19.20
2018-04-22T08:26:01.221Z,19.20
2018-04-22T08:32:05.698Z,19.90
2018-04-22T08:38:10.476Z,20.20
2018-04-22T08:44:15.027Z,20.60
2018-04-22T08:50:19.415Z,21.10
2018-04-22T08:56:23.808Z,21.10
2018-04-22T09:02:28.199Z,21.00
2018-04-22T09:08:32.584Z,21.60
2018-04-22T09:14:36.982Z,22.20
2018-04-22T09:20:41.373Z,21.70
2018-04-22T09:26:45.952Z,21.40
2018-04-22T09:32:51.086Z,20.90
2018-04-22T09:38:55.543Z,20.90
2018-04-22T09:44:59.911Z,21.50
2018-04-22T09:51:05.052Z,23.50
2018-04-22T09:57:09.431Z,23.50
2018-04-22T10:03:14.093Z,24.50
2018-04-22T10:09:19.184Z,24.90
2018-04-22T10:15:23.549Z,25.20
2018-04-22T10:21:27.919Z,25.20
2018-04-22T10:27:33.141Z,26.00
2018-04-22T10:33:37.503Z,25.90
2018-04-22T10:39:41.906Z,26.10
2018-04-22T10:45:46.680Z,26.70
2018-04-22T10:51:51.046Z,27.60
2018-04-22T10:57:55.477Z,28.20
2018-04-22T11:03:59.909Z,28.80
2018-04-22T11:10:04.310Z,29.90
2018-04-22T11:16:08.698Z,30.70
2018-04-22T11:22:14.051Z,31.50
2018-04-22T11:28:18.603Z,31.40
2018-04-22T11:34:23.766Z,33.00
2018-04-22T11:40:28.191Z,32.90
2018-04-22T11:46:32.579Z,32.80
2018-04-22T11:52:36.951Z,33.60
2018-04-22T11:58:41.468Z,33.20
2018-04-22T12:04:46.348Z,34.50
2018-04-22T12:10:50.718Z,34.90
2018-04-22T12:16:55.228Z,34.50
2018-04-22T12:22:59.651Z,34.60
2018-04-22T12:29:04.018Z,35.00
2018-04-22T12:35:08.559Z,34.60
2018-04-22T12:41:13.107Z,34.40
2018-04-22T12:47:17.502Z,34.80
2018-04-22T12:53:22.666Z,34.70
2018-04-22T12:59:27.122Z,34.70
2018-04-22T13:05:31.599Z,35.10
2018-04-22T13:11:35.958Z,35.20
2018-04-22T13:17:40.335Z,35.10
2018-04-22T13:23:44.720Z,35.40
2018-04-22T13:29:49.314Z,36.00
2018-04-22T13:35:53.737Z,35.80
2018-04-22T13:41:58.970Z,37.20
2018-04-22T13:48:03.418Z,37.10
2018-04-22T13:54:08.546Z,37.10
2018-04-22T14:00:13.115Z,37.10
2018-04-22T14:06:18.025Z,37.00
2018-04-22T14:12:22.391Z,37.80
2018-04-22T14:18:26.901Z,37.80
2018-04-22T14:24:31.275Z,37.10
2018-04-22T14:30:35.647Z,37.70
2018-04-22T14:36:40.072Z,36.90
2018-04-22T14:42:44.465Z,33.40
2018-04-22T14:49:05.765Z,31.60
2018-04-22T14:55:10.157Z,31.60
2018-04-22T15:21:52.251Z,28.90
2018-04-22T15:27:56.607Z,28.60
2018-04-22T15:34:00.959Z,28.30
2018-04-22T15:40:05.345Z,27.80
2018-04-22T15:46:09.689Z,27.40
2018-04-22T15:52:14.055Z,27.10
2018-04-22T15:58:18.429Z,26.80
2018-04-22T16:04:23.530Z,25.90
2018-04-22T16:10:27.914Z,25.90
2018-04-22T16:16:32.255Z,25.50
2018-04-22T16:22:37.373Z,24.70
2018-04-22T16:28:41.753Z,24.60
2018-04-22T16:34:46.919Z,24.00
2018-04-22T16:40:52.083Z,23.70
2018-04-22T16:46:57.220Z,23.40
2018-04-22T16:53:02.358Z,23.20
2018-04-22T16:59:06.705Z,23.10
2018-04-22T17:05:11.045Z,23.00
2018-04-22T17:11:15.390Z,22.90
2018-04-22T17:17:19.731Z,21.00
2018-04-22T17:23:24.078Z,19.40
2018-04-22T17:29:28.429Z,18.20
2018-04-22T17:35:32.783Z,17.80
2018-04-22T17:41:37.126Z,17.30
2018-04-22T17:47:42.242Z,16.70
2018-04-22T17:53:46.586Z,16.60
2018-04-22T17:59:50.957Z,16.70
2018-04-22T18:05:55.287Z,16.80
2018-04-22T18:11:59.625Z,16.50
2018-04-22T18:18:03.947Z,16.60
2018-04-22T18:24:08.289Z,16.60
2018-04-22T18:30:12.665Z,16.60
2018-04-22T18:36:17.019Z,16.50
2018-04-22T18:42:21.347Z,16.50
2018-04-22T18:48:25.677Z,16.40
2018-04-22T18:54:30.020Z,16.40
2018-04-22T19:00:34.376Z,16.50
2018-04-22T19:06:39.484Z,16.20
2018-04-22T19:12:43.845Z,16.10
2018-04-22T19:18:48.208Z,16.00
2018-04-22T19:24:52.540Z,16.00
2018-04-22T19:30:56.887Z,15.90
2018-04-22T19:37:01.237Z,16.00
2018-04-22T19:43:06.350Z,16.20
2018-04-22T19:49:10.702Z,16.20
2018-04-22T19:55:15.041Z,16.20
2018-04-22T20:01:19.436Z,16.20
2018-04-22T20:07:23.783Z,16.20
2018-04-22T20:13:28.128Z,16.10
2018-04-22T20:19:32.473Z,16.20
2018-04-22T20:25:36.819Z,16.20
2018-04-22T20:31:41.199Z,16.00
2018-04-22T20:37:45.535Z,15.90
2018-04-22T20:43:49.905Z,15.80
2018-04-22T20:49:55.028Z,15.70
2018-04-22T20:55:59.393Z,15.70
2018-04-22T21:02:03.753Z,15.70
2018-04-22T21:08:08.880Z,15.70
2018-04-22T21:14:13.223Z,15.70
2018-04-22T21:20:17.568Z,15.60
2018-04-22T21:26:21.934Z,15.70
2018-04-22T21:32:27.041Z,15.60
2018-04-22T21:38:31.381Z,15.60
2018-04-22T21:44:35.727Z,15.40
2018-04-22T21:50:40.083Z,15.60
2018-04-22T21:56:44.473Z,15.50
2018-04-22T22:02:48.858Z,15.50
2018-04-22T22:08:53.211Z,15.40
2018-04-22T22:14:57.576Z,15.30
2018-04-22T22:21:02.693Z,15.20
2018-04-22T22:27:07.040Z,15.20
2018-04-22T22:33:12.008Z,15.20
2018-04-22T22:39:16.358Z,15.10
2018-04-22T22:45:20.724Z,15.00
2018-04-22T22:51:25.855Z,14.80
2018-04-22T22:57:30.218Z,14.80
2018-04-22T23:03:35.344Z,14.70
2018-04-22T23:09:39.681Z,14.70
2018-04-22T23:15:44.032Z,14.70
2018-04-22T23:21:48.400Z,14.50
2018-04-22T23:27:53.515Z,14.40
2018-04-22T23:33:57.869Z,14.40
2018-04-22T23:40:02.226Z,14.40
2018-04-22T23:46:06.578Z,14.30
2018-04-22T23:52:11.689Z,14.30
2018-04-22T23:58:16.043Z,14.30
